Time;durP1;ratioP1;P1;durP2;ratioP2;P2;SDS_P1;SDS_P2;PMS_P1;PMS_P2;Temp;Humidity;BMP_temperature;BMP_pressure;BME280_temperature;BME280_humidity;BME280_pressure;Samples;Min_cycle;Max_cycle;Signal;HPM_P1;HPM_P2
2021/06/13 00:00:25;;;;;;;;;5.67;5.67;;;;;23.46;47.41;101953.03;5100539;27;46985;-50
2021/06/13 00:02:50;;;;;;;;;5.33;5.00;;;;;23.45;47.20;101962.13;5090700;27;45352;-47
2021/06/13 00:05:17;;;;;;;;;6.75;6.75;;;;;23.44;47.70;101965.81;5105756;27;45450;-47
2021/06/13 00:07:43;;;;;;;;;6.50;6.50;;;;;23.44;47.44;101962.22;5100221;27;45359;-49
2021/06/13 00:10:11;;;;;;;;;8.50;6.50;;;;;23.43;47.49;101953.22;5104521;27;46900;-46
2021/06/13 00:12:37;;;;;;;;;6.50;6.50;;;;;23.39;47.55;101956.19;5099413;27;45297;-50
2021/06/13 00:15:08;;;;;;;;;6.00;6.00;;;;;23.36;47.68;101959.06;5102014;27;45413;-51
2021/06/13 00:17:34;;;;;;;;;6.25;6.25;;;;;23.34;47.79;101960.97;5109435;27;45489;-49
2021/06/13 00:20:00;;;;;;;;;8.00;7.00;;;;;23.30;47.59;101959.41;5099159;27;45472;-51
2021/06/13 00:22:25;;;;;;;;;5.75;5.00;;;;;23.28;47.63;101953.19;5102845;27;45590;-51
2021/06/13 00:24:51;;;;;;;;;7.75;6.75;;;;;23.24;47.85;101960.59;5108029;27;45410;-47
2021/06/13 00:27:16;;;;;;;;;7.00;6.00;;;;;23.20;47.64;101953.59;5106668;27;45293;-46
2021/06/13 00:29:42;;;;;;;;;7.50;6.00;;;;;23.17;47.73;101949.25;5103653;27;48333;-47
2021/06/13 00:32:07;;;;;;;;;9.50;6.75;;;;;23.18;48.13;101944.69;5117863;27;45282;-47
2021/06/13 00:34:33;;;;;;;;;7.67;5.00;;;;;23.16;47.76;101943.91;5106328;27;45430;-51
2021/06/13 00:36:58;;;;;;;;;6.25;6.25;;;;;23.13;48.07;101944.97;5102131;27;45520;-48
2021/06/13 00:39:24;;;;;;;;;6.25;6.25;;;;;23.12;48.38;101945.94;5099222;27;47173;-49
2021/06/13 00:41:49;;;;;;;;;6.00;6.00;;;;;23.11;47.87;101943.28;5100509;27;47630;-52
2021/06/13 00:44:15;;;;;;;;;6.75;6.75;;;;;23.07;48.28;101942.56;5105246;27;45374;-50
2021/06/13 00:46:40;;;;;;;;;5.75;5.75;;;;;23.05;48.03;101944.50;5103416;27;45796;-52
2021/06/13 00:49:07;;;;;;;;;6.25;6.00;;;;;23.03;48.61;101950.97;5123190;27;47833;-50
2021/06/13 00:51:33;;;;;;;;;5.75;5.75;;;;;23.01;48.11;101944.75;5107283;27;45426;-49
2021/06/13 00:53:58;;;;;;;;;7.50;6.50;;;;;23.00;48.76;101945.72;5110004;27;45322;-49
2021/06/13 00:56:24;;;;;;;;;7.00;7.00;;;;;22.99;48.59;101946.66;5099692;27;45516;-50
2021/06/13 00:58:50;;;;;;;;;7.50;6.00;;;;;22.98;48.49;101945.78;5104389;27;48319;-51
2021/06/13 01:01:16;;;;;;;;;4.50;4.50;;;;;22.96;48.67;101936.88;5115090;27;45378;-49
2021/06/13 01:03:43;;;;;;;;;6.50;6.50;;;;;22.94;48.70;101940.63;5111244;27;46944;-51
2021/06/13 01:06:10;;;;;;;;;7.00;6.75;;;;;22.90;48.62;101940.78;5101706;27;45430;-49
2021/06/13 01:08:43;;;;;;;;;7.25;7.00;;;;;22.85;48.67;101940.16;5108575;27;47874;-50
2021/06/13 01:12:00;;;;;;;;;7.50;6.75;;;;;22.80;48.75;101952.16;5129440;27;45910;-54
2021/06/13 01:14:41;;;;;;;;;6.25;6.00;;;;;22.73;49.09;101943.47;5095085;27;45390;-47
2021/06/13 01:17:27;;;;;;;;;5.00;5.00;;;;;22.68;49.15;101947.41;5117025;27;45436;-49
2021/06/13 01:20:29;;;;;;;;;8.25;8.25;;;;;22.66;49.46;101947.47;5114630;27;48305;-47
2021/06/13 01:23:22;;;;;;;;;8.50;8.50;;;;;22.64;49.36;101943.09;5097970;27;45390;-49
2021/06/13 01:26:06;;;;;;;;;6.50;6.50;;;;;22.63;48.81;101938.66;5106279;27;45699;-48
2021/06/13 01:29:25;;;;;;;;;6.75;6.75;;;;;22.61;48.96;101941.41;5106527;27;45462;-52
2021/06/13 01:31:54;;;;;;;;;7.25;7.25;;;;;22.60;49.08;101950.47;5050184;28;48296;-48
2021/06/13 01:34:28;;;;;;;;;6.75;6.25;;;;;22.56;49.49;101948.91;5093852;27;45352;-52
2021/06/13 01:36:56;;;;;;;;;7.25;6.75;;;;;22.54;49.05;101957.09;5104961;27;45308;-52
2021/06/13 01:39:25;;;;;;;;;7.00;6.50;;;;;22.53;49.61;101955.34;5109085;27;45341;-49
2021/06/13 01:41:52;;;;;;;;;6.50;5.75;;;;;22.55;49.66;101961.56;5102499;27;47351;-51
2021/06/13 01:44:20;;;;;;;;;7.00;6.00;;;;;22.53;49.66;101959.91;5113403;27;45643;-49
2021/06/13 01:46:50;;;;;;;;;7.00;7.00;;;;;22.51;49.68;101962.69;5105416;27;45616;-52
2021/06/13 01:49:18;;;;;;;;;9.50;9.00;;;;;22.50;49.63;101958.22;5110519;27;45775;-50
2021/06/13 01:51:44;;;;;;;;;8.00;6.25;;;;;22.49;49.64;101963.72;5101541;27;48313;-46
2021/06/13 01:54:11;;;;;;;;;9.25;7.00;;;;;22.45;49.52;101964.81;5102426;27;46522;-52
2021/06/13 01:56:41;;;;;;;;;7.25;6.50;;;;;22.41;49.28;101965.94;5112567;27;45517;-51
2021/06/13 01:59:08;;;;;;;;;8.25;8.25;;;;;22.39;49.24;101957.91;5116095;27;45475;-53
2021/06/13 02:01:35;;;;;;;;;6.50;6.50;;;;;22.38;49.44;101958.00;5115197;27;47730;-48
2021/06/13 02:04:02;;;;;;;;;8.75;8.50;;;;;22.37;49.25;101967.06;5110480;27;45573;-49
2021/06/13 02:06:30;;;;;;;;;7.00;7.00;;;;;22.36;49.68;101965.28;5112155;27;45760;-49
2021/06/13 02:08:57;;;;;;;;;7.00;7.00;;;;;22.33;49.63;101971.72;5105319;27;45356;-49
2021/06/13 02:11:24;;;;;;;;;7.25;7.25;;;;;22.27;49.64;101975.63;5107000;27;47234;-52
2021/06/13 02:13:50;;;;;;;;;9.25;7.25;;;;;22.25;49.94;101965.84;5105659;27;45374;-48
2021/06/13 02:16:18;;;;;;;;;8.00;7.00;;;;;22.24;49.72;101973.09;5117453;27;45412;-50
2021/06/13 02:18:45;;;;;;;;;6.00;6.00;;;;;22.26;49.67;101987.41;5119242;27;45558;-52
2021/06/13 02:21:12;;;;;;;;;7.00;7.00;;;;;22.25;49.50;101974.84;5102609;27;48667;-52
2021/06/13 02:23:40;;;;;;;;;5.33;5.33;;;;;22.27;49.47;101988.28;5115308;27;47089;-51
2021/06/13 02:26:05;;;;;;;;;7.67;7.00;;;;;22.28;49.76;101984.63;5112852;27;45651;-51
2021/06/13 02:28:40;;;;;;;;;7.00;6.00;;;;;22.29;49.70;101975.56;5101561;27;45790;-52
2021/06/13 02:31:07;;;;;;;;;6.00;6.00;;;;;22.28;50.14;101979.22;5101230;27;47161;-50
2021/06/13 02:33:37;;;;;;;;;7.33;7.33;;;;;22.28;49.33;101980.09;5110304;27;45859;-50
2021/06/13 02:36:03;;;;;;;;;6.00;6.00;;;;;22.27;49.96;101983.75;5109215;27;45497;-52
2021/06/13 02:38:29;;;;;;;;;9.33;7.33;;;;;22.27;49.96;101977.47;5106437;27;45617;-51
2021/06/13 02:40:55;;;;;;;;;6.00;6.00;;;;;22.25;49.48;101990.19;5105466;27;45347;-49
2021/06/13 02:43:21;;;;;;;;;10.00;9.00;;;;;22.21;49.33;101992.16;5109823;27;45335;-52
2021/06/13 02:45:48;;;;;;;;;7.00;6.00;;;;;22.20;49.27;101995.81;5109296;27;45614;-53
2021/06/13 02:48:15;;;;;;;;;6.00;6.00;;;;;22.18;49.48;101991.44;5118329;27;45982;-52
2021/06/13 02:50:41;;;;;;;;;8.00;7.67;;;;;22.15;49.77;101997.88;5104963;27;47433;-53
2021/06/13 02:53:43;;;;;;;;;9.00;9.00;;;;;22.14;49.98;101998.84;5108673;27;45370;-53
2021/06/13 02:56:13;;;;;;;;;8.00;8.00;;;;;22.13;49.75;101999.78;5116300;27;45404;-53
2021/06/13 02:59:02;;;;;;;;;6.00;6.00;;;;;22.13;49.65;101999.78;5109986;27;45446;-50
2021/06/13 03:01:29;;;;;;;;;9.33;7.67;;;;;22.14;49.74;102003.38;5104586;27;47207;-55
2021/06/13 03:03:56;;;;;;;;;6.00;6.00;;;;;22.13;49.58;102012.44;5112827;27;45620;-53
2021/06/13 03:06:23;;;;;;;;;6.33;6.00;;;;;22.13;49.69;102013.31;5104159;27;46864;-52
2021/06/13 03:08:50;;;;;;;;;6.33;6.33;;;;;22.14;49.56;102015.06;5109997;27;45266;-50
2021/06/13 03:11:17;;;;;;;;;10.00;10.00;;;;;22.15;49.27;102021.34;5103823;27;45470;-49
2021/06/13 03:13:46;;;;;;;;;6.67;6.67;;;;;22.15;49.70;102021.34;5107471;27;45776;-48
2021/06/13 03:16:13;;;;;;;;;7.67;7.67;;;;;22.14;50.06;102022.28;5103553;27;45545;-49
2021/06/13 03:18:42;;;;;;;;;7.67;7.67;;;;;22.13;49.96;102023.25;5109093;27;45308;-52
2021/06/13 03:21:11;;;;;;;;;6.33;6.33;;;;;22.12;49.45;102019.66;5110627;27;46209;-49
2021/06/13 03:23:37;;;;;;;;;9.00;8.00;;;;;22.14;49.46;102030.41;5105128;27;45381;-49
2021/06/13 03:26:04;;;;;;;;;8.00;8.00;;;;;22.12;49.62;102029.63;5113291;27;45885;-51
2021/06/13 03:28:33;;;;;;;;;8.00;7.00;;;;;22.13;49.98;102036.78;5102148;27;45365;-51
2021/06/13 03:31:01;;;;;;;;;6.33;6.33;;;;;22.12;49.65;102030.50;5100580;27;47453;-50
2021/06/13 03:33:28;;;;;;;;;11.00;9.00;;;;;22.12;49.43;102032.31;5110015;27;46086;-52
2021/06/13 03:35:56;;;;;;;;;9.00;7.67;;;;;22.11;49.94;102027.88;5101572;27;45663;-51
2021/06/13 03:38:22;;;;;;;;;6.00;6.00;;;;;22.09;49.94;102030.63;5106499;27;45570;-50
2021/06/13 03:40:48;;;;;;;;;10.33;10.33;;;;;22.09;49.36;102036.03;5111154;27;47461;-51
2021/06/13 03:43:15;;;;;;;;;8.00;8.00;;;;;22.08;49.63;102026.16;5100947;27;45509;-49
2021/06/13 03:45:41;;;;;;;;;8.00;6.33;;;;;22.09;49.54;102029.75;5109026;27;45540;-53
2021/06/13 03:48:10;;;;;;;;;7.00;6.67;;;;;22.09;49.39;102027.91;5107050;27;45267;-54
2021/06/13 03:50:36;;;;;;;;;9.33;8.33;;;;;22.09;49.77;102027.91;5114697;27;47390;-52
2021/06/13 03:53:02;;;;;;;;;8.00;8.00;;;;;22.09;49.16;102027.91;5103945;27;45812;-50
2021/06/13 03:55:29;;;;;;;;;8.00;8.00;;;;;22.10;49.31;102037.78;5101882;27;46239;-48
2021/06/13 03:57:56;;;;;;;;;8.00;7.00;;;;;22.10;49.31;102029.66;5110503;27;45488;-49
2021/06/13 04:00:25;;;;;;;;;8.25;7.00;;;;;22.11;49.69;102036.84;5106803;27;47423;-49
2021/06/13 04:02:51;;;;;;;;;9.00;8.00;;;;;22.12;49.25;102035.91;5110829;27;45824;-53
2021/06/13 04:05:19;;;;;;;;;7.00;7.00;;;;;22.10;49.18;102036.91;5099766;27;45614;-50
2021/06/13 04:07:45;;;;;;;;;9.00;9.00;;;;;22.08;49.26;102044.22;5099128;27;45490;-51
2021/06/13 04:10:13;;;;;;;;;8.00;6.50;;;;;22.07;49.20;102042.47;5112175;27;48204;-51
2021/06/13 04:12:40;;;;;;;;;7.50;7.50;;;;;22.05;49.31;102042.50;5110079;27;46067;-51
2021/06/13 04:15:08;;;;;;;;;8.75;7.25;;;;;22.03;49.04;102049.81;5130447;27;45332;-50
2021/06/13 04:17:34;;;;;;;;;9.33;8.00;;;;;22.02;49.22;102048.94;5118204;27;45548;-51
2021/06/13 04:20:04;;;;;;;;;6.00;6.00;;;;;22.03;48.86;102052.53;5105507;27;47384;-50
2021/06/13 04:22:30;;;;;;;;;10.67;8.00;;;;;22.02;48.52;102051.66;5101617;27;45458;-51
2021/06/13 04:24:57;;;;;;;;;8.67;8.67;;;;;22.01;49.08;102058.00;5108690;27;45408;-49
2021/06/13 04:27:25;;;;;;;;;7.67;7.67;;;;;21.99;49.16;102059.03;5099585;27;46829;-51
2021/06/13 04:29:51;;;;;;;;;7.67;7.67;;;;;21.97;48.62;102058.19;5102345;27;48469;-46
2021/06/13 04:32:17;;;;;;;;;9.67;8.33;;;;;21.93;48.81;102071.00;5114492;27;45818;-52
2021/06/13 04:34:43;;;;;;;;;8.00;8.00;;;;;21.92;48.71;102068.38;5111370;27;45312;-52
2021/06/13 04:37:09;;;;;;;;;7.33;6.67;;;;;21.89;48.59;102066.69;5111991;27;45548;-49
2021/06/13 04:39:36;;;;;;;;;8.67;8.67;;;;;21.89;48.43;102071.22;5107355;27;48118;-49
2021/06/13 04:42:04;;;;;;;;;9.00;9.00;;;;;21.86;48.83;102077.66;5105630;27;46007;-50
2021/06/13 04:44:30;;;;;;;;;9.33;9.33;;;;;21.83;48.57;102066.97;5108591;27;45569;-52
2021/06/13 04:46:56;;;;;;;;;9.25;9.00;;;;;21.85;49.05;102066.91;5103054;27;45588;-49
2021/06/13 04:49:21;;;;;;;;;7.00;7.00;;;;;21.86;48.66;102079.50;5103097;27;46254;-49
2021/06/13 04:51:50;;;;;;;;;8.25;8.25;;;;;21.88;48.61;102080.28;5101079;27;45424;-52
2021/06/13 04:54:25;;;;;;;;;10.33;9.33;;;;;21.86;48.52;102083.06;5111275;27;45643;-51
2021/06/13 04:57:12;;;;;;;;;9.50;9.00;;;;;21.84;48.64;102084.94;5102552;27;45474;-53
2021/06/13 04:59:38;;;;;;;;;11.00;11.00;;;;;21.83;49.02;102087.72;5099370;27;47415;-49
2021/06/13 05:02:03;;;;;;;;;8.00;8.00;;;;;21.84;48.94;102089.47;5100080;27;45772;-51
2021/06/13 05:04:29;;;;;;;;;11.00;9.33;;;;;21.84;48.67;102087.63;5099267;27;45734;-47
2021/06/13 05:06:56;;;;;;;;;8.00;8.00;;;;;21.86;48.75;102082.19;5109731;27;45661;-51
2021/06/13 05:09:21;;;;;;;;;7.50;7.50;;;;;21.85;48.53;102086.72;5106417;27;47241;-52
2021/06/13 05:11:47;;;;;;;;;9.00;9.00;;;;;21.87;48.54;102086.66;5115913;27;45867;-52
2021/06/13 05:14:12;;;;;;;;;10.33;10.33;;;;;21.88;48.71;102081.16;5106505;27;45512;-48
2021/06/13 05:16:40;;;;;;;;;9.00;9.00;;;;;21.87;48.78;102083.94;5100025;27;45661;-50
2021/06/13 05:19:06;;;;;;;;;11.25;9.25;;;;;21.87;48.69;102090.22;5104966;27;47572;-55
2021/06/13 05:21:32;;;;;;;;;9.00;8.75;;;;;21.86;48.84;102090.31;5102506;27;46275;-52
2021/06/13 05:24:00;;;;;;;;;8.00;7.00;;;;;21.84;48.65;102098.44;5103337;27;45507;-53
2021/06/13 05:26:29;;;;;;;;;7.67;7.00;;;;;21.84;48.38;102095.75;5114052;27;45377;-50
2021/06/13 05:28:56;;;;;;;;;9.25;9.25;;;;;21.86;48.64;102103.81;5104996;27;48420;-52
2021/06/13 05:31:21;;;;;;;;;7.50;7.50;;;;;21.88;48.63;102099.22;5105914;27;45708;-52
2021/06/13 05:33:48;;;;;;;;;8.00;8.00;;;;;21.90;48.52;102105.41;5114854;27;45435;-47
2021/06/13 05:36:14;;;;;;;;;6.67;6.67;;;;;21.90;48.64;102106.28;5113682;27;45627;-53
2021/06/13 05:38:41;;;;;;;;;10.50;9.25;;;;;21.91;48.90;102099.94;5100906;27;45521;-47
2021/06/13 05:41:08;;;;;;;;;9.00;9.00;;;;;21.94;47.98;102098.91;5101403;27;45471;-47
2021/06/13 05:43:33;;;;;;;;;8.33;8.00;;;;;21.95;48.47;102098.81;5109035;27;45798;-51
2021/06/13 05:46:01;;;;;;;;;8.00;6.67;;;;;21.96;48.09;102099.69;5111051;27;44991;-50
2021/06/13 05:48:27;;;;;;;;;8.00;8.00;;;;;21.98;48.44;102111.34;5106768;27;47002;-49
2021/06/13 05:50:52;;;;;;;;;7.67;7.00;;;;;21.98;48.04;102111.34;5104285;27;45573;-47
2021/06/13 05:53:18;;;;;;;;;8.00;7.00;;;;;21.98;47.67;102112.22;5104757;27;45435;-50
2021/06/13 05:55:43;;;;;;;;;7.67;7.67;;;;;21.99;47.88;102113.97;5108996;27;45695;-51
2021/06/13 05:58:09;;;;;;;;;7.67;6.67;;;;;21.99;47.60;102110.41;5102003;27;48430;-52
2021/06/13 06:00:36;;;;;;;;;6.67;6.67;;;;;21.99;47.52;102110.41;5102256;27;46553;-49
2021/06/13 06:03:03;;;;;;;;;8.00;6.67;;;;;22.00;47.60;102113.03;5105593;27;45200;-49
2021/06/13 06:05:30;;;;;;;;;6.00;6.00;;;;;22.01;47.28;102111.19;5125311;27;45896;-47
2021/06/13 06:07:56;;;;;;;;;9.00;9.00;;;;;22.03;47.34;102112.00;5100717;27;48536;-48
2021/06/13 06:10:24;;;;;;;;;8.00;8.00;;;;;22.05;47.48;102118.19;5116932;27;45706;-49
2021/06/13 06:12:49;;;;;;;;;7.00;7.00;;;;;22.06;46.72;102121.81;5104595;27;45701;-50
2021/06/13 06:15:18;;;;;;;;;7.25;6.75;;;;;22.09;47.19;102125.22;5104672;27;45637;-50
2021/06/13 06:17:45;;;;;;;;;7.00;5.75;;;;;22.11;46.94;102126.06;5102577;27;47445;-49
2021/06/13 06:20:13;;;;;;;;;9.00;7.50;;;;;22.12;46.66;102130.53;5117127;27;45513;-47
2021/06/13 06:22:38;;;;;;;;;6.25;6.25;;;;;22.14;46.12;102122.34;5101554;27;45335;-49
2021/06/13 06:25:08;;;;;;;;;8.50;8.25;;;;;22.15;46.65;102126.78;5105938;27;45522;-49
2021/06/13 06:27:34;;;;;;;;;8.00;6.00;;;;;22.16;46.02;102125.84;5103845;27;46657;-47
2021/06/13 06:30:00;;;;;;;;;9.00;9.00;;;;;22.15;46.35;102124.09;5110265;27;45349;-50
2021/06/13 06:32:26;;;;;;;;;6.00;6.00;;;;;22.17;45.78;102139.28;5104406;27;45368;-46
2021/06/13 06:34:51;;;;;;;;;6.75;6.25;;;;;22.18;45.88;102137.44;5100766;27;45340;-49
2021/06/13 06:37:17;;;;;;;;;6.50;6.50;;;;;22.18;45.65;102138.31;5107458;27;47355;-48
2021/06/13 06:39:43;;;;;;;;;11.00;9.25;;;;;22.19;45.92;102148.19;5102905;27;45832;-47
2021/06/13 06:42:08;;;;;;;;;9.00;9.00;;;;;22.18;45.83;102142.84;5101611;27;45854;-50
2021/06/13 06:44:34;;;;;;;;;8.00;8.00;;;;;22.19;45.68;102142.78;5105574;27;45421;-50
2021/06/13 06:47:02;;;;;;;;;8.00;7.00;;;;;22.21;45.62;102145.41;5109528;27;46953;-48
2021/06/13 06:49:32;;;;;;;;;12.50;12.25;;;;;22.23;45.19;102140.81;5104783;27;45341;-48
2021/06/13 06:51:59;;;;;;;;;9.00;8.00;;;;;22.22;45.12;102131.81;5100533;27;45784;-50
2021/06/13 06:54:25;;;;;;;;;8.25;6.50;;;;;22.21;45.14;102145.41;5100687;27;45383;-50
2021/06/13 06:56:50;;;;;;;;;7.25;7.25;;;;;22.21;45.03;102148.13;5102821;27;48083;-51
2021/06/13 06:59:16;;;;;;;;;6.33;6.33;;;;;22.22;45.11;102148.03;5100245;27;45614;-47
2021/06/13 07:01:42;;;;;;;;;7.67;6.67;;;;;22.25;45.03;102150.63;5110174;27;45466;-48
2021/06/13 07:04:07;;;;;;;;;7.75;7.75;;;;;22.28;44.58;102149.59;5103677;27;45472;-47
2021/06/13 07:06:33;;;;;;;;;10.67;9.00;;;;;22.31;44.82;102149.44;5113459;27;47329;-48
2021/06/13 07:08:58;;;;;;;;;6.00;6.00;;;;;22.33;44.82;102145.69;5101136;27;45591;-47
2021/06/13 07:11:24;;;;;;;;;6.00;6.00;;;;;22.36;44.43;102144.69;5100268;27;45206;-46
2021/06/13 07:13:50;;;;;;;;;8.67;7.67;;;;;22.38;44.08;102144.63;5104098;27;45608;-49
2021/06/13 07:16:15;;;;;;;;;5.25;5.25;;;;;22.39;43.75;102139.13;5108133;27;45533;-48
2021/06/13 07:18:41;;;;;;;;;5.33;5.33;;;;;22.40;44.17;102149.00;5112709;27;46196;-47
2021/06/13 07:21:06;;;;;;;;;7.50;6.50;;;;;22.43;44.21;102146.13;5112147;27;45475;-48
2021/06/13 07:23:33;;;;;;;;;7.75;6.75;;;;;22.45;43.55;102148.75;5107302;27;45452;-48
2021/06/13 07:25:58;;;;;;;;;6.00;6.00;;;;;22.46;44.02;102150.50;5104317;27;47590;-48
2021/06/13 07:28:23;;;;;;;;;9.00;6.75;;;;;22.49;43.87;102150.38;5104360;27;45512;-46
2021/06/13 07:30:49;;;;;;;;;6.50;4.75;;;;;22.49;43.58;102144.97;5102934;27;45803;-47
2021/06/13 07:33:15;;;;;;;;;4.00;4.00;;;;;22.51;43.35;102153.91;5107753;27;45744;-46
2021/06/13 07:35:41;;;;;;;;;7.00;7.00;;;;;22.53;43.59;102152.88;5099928;27;48016;-51
2021/06/13 07:38:06;;;;;;;;;6.00;5.75;;;;;22.54;43.41;102161.84;5099356;27;45925;-51
2021/06/13 07:40:33;;;;;;;;;5.33;5.00;;;;;22.55;43.40;102163.59;5108689;27;46486;-49
2021/06/13 07:42:59;;;;;;;;;4.00;4.00;;;;;22.58;43.22;102164.31;5104545;27;45524;-52
2021/06/13 07:45:26;;;;;;;;;6.25;6.25;;;;;22.59;43.30;102162.50;5114199;27;47273;-50
2021/06/13 07:47:52;;;;;;;;;5.00;3.67;;;;;22.59;43.20;102157.06;5114733;27;45618;-48
2021/06/13 07:50:20;;;;;;;;;7.00;6.00;;;;;22.61;43.27;102149.75;5103459;27;45631;-48
2021/06/13 07:52:47;;;;;;;;;5.00;5.00;;;;;22.64;43.05;102155.03;5101757;27;45573;-50
2021/06/13 07:55:15;;;;;;;;;4.00;4.00;;;;;22.66;43.49;102142.31;5105047;27;47569;-50
2021/06/13 07:57:43;;;;;;;;;4.67;4.67;;;;;22.70;43.01;102145.72;5100725;27;46113;-47
2021/06/13 08:00:11;;;;;;;;;5.00;5.00;;;;;22.74;42.93;102147.31;5102050;27;45653;-48
2021/06/13 08:02:38;;;;;;;;;6.00;6.00;;;;;22.78;43.00;102151.66;5099440;27;45391;-51
2021/06/13 08:05:13;;;;;;;;;5.00;5.00;;;;;22.79;42.83;102151.56;5099407;27;45288;-50
2021/06/13 08:07:38;;;;;;;;;6.00;5.00;;;;;22.81;42.54;102154.19;5100911;27;45683;-47
2021/06/13 08:10:09;;;;;;;;;5.00;5.00;;;;;22.81;42.19;102148.78;5104175;27;45483;-48
2021/06/13 08:12:35;;;;;;;;;5.67;5.67;;;;;22.83;41.87;102155.03;5109970;27;45472;-49
2021/06/13 08:15:01;;;;;;;;;4.50;4.50;;;;;22.84;42.07;102137.81;5107514;27;48122;-49
2021/06/13 08:17:27;;;;;;;;;7.50;6.50;;;;;22.85;42.30;102153.09;5107579;27;45309;-50
2021/06/13 08:19:52;;;;;;;;;5.50;5.50;;;;;22.84;42.08;102149.53;5106291;27;44921;-50
2021/06/13 08:22:18;;;;;;;;;7.00;4.67;;;;;22.87;41.98;102153.94;5106298;27;45339;-50
2021/06/13 08:24:43;;;;;;;;;7.00;6.00;;;;;22.89;42.13;102150.19;5105046;27;45993;-49
2021/06/13 08:27:09;;;;;;;;;5.00;5.00;;;;;22.92;41.55;102145.56;5101507;27;45825;-48
2021/06/13 08:29:34;;;;;;;;;5.67;5.00;;;;;22.93;41.82;102148.19;5099226;27;45587;-50
2021/06/13 08:32:00;;;;;;;;;5.33;5.33;;;;;22.95;41.63;102149.00;5102374;27;45321;-48
2021/06/13 08:34:25;;;;;;;;;6.25;5.00;;;;;22.97;41.76;102152.50;5097763;27;47252;-48
2021/06/13 08:36:52;;;;;;;;;5.00;5.00;;;;;22.99;42.04;102150.56;5100852;27;45713;-50
2021/06/13 08:39:18;;;;;;;;;4.33;4.33;;;;;23.02;41.62;102147.75;5102104;27;45341;-52
2021/06/13 08:41:44;;;;;;;;;5.00;5.00;;;;;23.06;41.26;102162.88;5117120;27;45371;-49
2021/06/13 08:44:09;;;;;;;;;6.33;5.00;;;;;23.08;41.51;102147.41;5102963;27;48378;-48
2021/06/13 08:46:39;;;;;;;;;4.00;4.00;;;;;23.12;41.67;102143.59;5101401;27;45713;-52
2021/06/13 08:49:05;;;;;;;;;7.67;6.00;;;;;23.15;41.49;102142.56;5098979;27;45415;-50
2021/06/13 08:51:32;;;;;;;;;6.25;5.75;;;;;23.16;41.10;102130.78;5110910;27;45470;-53
2021/06/13 08:53:57;;;;;;;;;5.00;5.00;;;;;23.19;41.66;102136.03;5100737;27;45565;-51
2021/06/13 08:56:23;;;;;;;;;6.00;6.00;;;;;23.21;41.16;102136.81;5102134;27;45459;-52
2021/06/13 08:58:50;;;;;;;;;6.00;6.00;;;;;23.24;40.85;102133.06;5098106;27;45758;-50
2021/06/13 09:01:16;;;;;;;;;5.00;5.00;;;;;23.24;41.20;102136.66;5098062;27;45650;-52
2021/06/13 09:03:43;;;;;;;;;7.00;7.00;;;;;23.26;40.63;102133.88;5109074;27;47479;-51
2021/06/13 09:06:11;;;;;;;;;4.67;4.67;;;;;23.28;41.18;102134.69;5102078;27;45510;-49
2021/06/13 09:08:39;;;;;;;;;6.00;6.00;;;;;23.30;40.83;102130.94;5109634;27;45546;-50
2021/06/13 09:11:06;;;;;;;;;5.00;5.00;;;;;23.32;40.96;102130.84;5100012;27;45600;-52
2021/06/13 09:13:34;;;;;;;;;7.00;7.00;;;;;23.32;40.79;102134.44;5097105;27;48204;-50
2021/06/13 09:16:05;;;;;;;;;5.25;4.00;;;;;23.34;40.87;102132.50;5097621;27;45432;-56
2021/06/13 09:19:02;;;;;;;;;7.75;7.00;;;;;23.36;40.57;102127.88;5110437;27;45664;-47
2021/06/13 09:21:29;;;;;;;;;5.00;5.00;;;;;23.39;40.64;102122.31;5101226;27;45333;-48
2021/06/13 09:23:54;;;;;;;;;5.67;5.67;;;;;23.42;40.38;102110.44;5119158;27;46448;-49
2021/06/13 09:26:26;;;;;;;;;7.00;5.67;;;;;23.45;40.45;102107.56;5102263;27;45598;-51
2021/06/13 09:28:55;;;;;;;;;6.00;6.00;;;;;23.47;40.80;102117.34;5100767;27;45536;-49
2021/06/13 09:31:31;;;;;;;;;4.33;4.33;;;;;23.51;41.06;102120.78;5097921;27;45572;-47
2021/06/13 09:33:59;;;;;;;;;8.33;7.00;;;;;23.54;40.67;102112.50;5105944;27;48221;-48
2021/06/13 09:36:29;;;;;;;;;6.33;6.33;;;;;23.58;40.73;102119.53;5114764;27;45798;-51
2021/06/13 09:39:06;;;;;;;;;6.67;6.00;;;;;23.61;40.48;102113.06;5100955;27;45646;-46
2021/06/13 09:41:35;;;;;;;;;5.00;4.67;;;;;23.64;40.69;102113.78;5098660;27;45718;-52
2021/06/13 09:44:01;;;;;;;;;8.00;8.00;;;;;23.67;40.50;102119.03;5098596;27;48008;-52
2021/06/13 09:46:30;;;;;;;;;8.33;8.00;;;;;23.70;40.53;102110.72;5098419;27;45450;-52
2021/06/13 09:49:02;;;;;;;;;6.67;6.67;;;;;23.73;40.30;102109.69;5098929;27;45244;-48
2021/06/13 09:51:33;;;;;;;;;7.33;7.00;;;;;23.77;40.19;102116.69;5098799;27;45307;-50
2021/06/13 09:53:59;;;;;;;;;6.00;5.67;;;;;23.75;39.98;102116.75;5105180;27;47150;-52
2021/06/13 09:56:36;;;;;;;;;6.00;6.00;;;;;23.76;40.03;102112.25;5117468;27;45413;-47
2021/06/13 09:59:10;;;;;;;;;7.00;7.00;;;;;23.77;39.52;102114.00;5106028;27;45370;-50
2021/06/13 10:01:39;;;;;;;;;6.25;6.00;;;;;23.78;40.33;102111.19;5119372;27;45346;-50
2021/06/13 10:04:14;;;;;;;;;6.50;6.50;;;;;23.80;39.77;102112.94;5102402;27;48395;-46
2021/06/13 10:06:40;;;;;;;;;6.00;6.00;;;;;23.81;40.14;102121.00;5100764;27;45661;-49
2021/06/13 10:09:07;;;;;;;;;8.50;6.25;;;;;23.82;40.44;102111.03;5102138;27;45451;-47
2021/06/13 10:11:36;;;;;;;;;5.00;5.00;;;;;23.85;39.98;102105.41;5102448;27;45340;-47
2021/06/13 10:14:05;;;;;;;;;6.25;6.25;;;;;23.87;39.48;102109.78;5109015;27;46351;-49
2021/06/13 10:16:31;;;;;;;;;6.25;6.25;;;;;23.89;39.85;102101.59;5101377;27;45436;-48
2021/06/13 10:19:04;;;;;;;;;6.25;5.00;;;;;23.91;39.72;102100.56;5120703;27;45460;-53
2021/06/13 10:21:35;;;;;;;;;6.00;6.00;;;;;23.91;39.44;102097.84;5122386;27;45628;-45
2021/06/13 10:24:05;;;;;;;;;4.50;4.50;;;;;23.91;39.70;102089.69;5120749;27;48450;-48
2021/06/13 10:26:31;;;;;;;;;4.33;4.33;;;;;23.92;39.46;102098.72;5122217;27;45498;-48
2021/06/13 10:28:56;;;;;;;;;4.00;4.00;;;;;23.92;39.10;102091.44;5122911;27;45366;-48
2021/06/13 10:31:22;;;;;;;;;4.67;4.67;;;;;23.93;39.31;102089.63;5118882;27;45373;-50
2021/06/13 10:33:48;;;;;;;;;5.00;5.00;;;;;23.95;39.64;102090.41;5101905;27;48352;-50
2021/06/13 10:36:15;;;;;;;;;6.75;6.00;;;;;23.97;39.20;102083.03;5101994;27;45365;-51
2021/06/13 10:38:42;;;;;;;;;3.75;3.75;;;;;24.01;38.96;102093.66;5101150;27;45353;-49
2021/06/13 10:41:08;;;;;;;;;5.50;5.50;;;;;24.03;39.30;102090.84;5101672;27;45308;-49
2021/06/13 10:43:34;;;;;;;;;5.00;5.00;;;;;24.06;38.75;102096.97;5111127;27;46237;-51
2021/06/13 10:46:10;;;;;;;;;4.75;4.75;;;;;24.06;38.78;102086.13;5123532;27;45358;-47
2021/06/13 10:48:42;;;;;;;;;5.25;5.25;;;;;24.08;38.90;102084.19;5120750;27;45402;-49
2021/06/13 10:51:40;;;;;;;;;4.75;4.75;;;;;24.12;38.85;102075.88;5122248;27;45597;-49
2021/06/13 10:54:24;;;;;;;;;7.00;5.50;;;;;24.13;38.92;102067.66;5112493;27;47316;-49
2021/06/13 10:57:11;;;;;;;;;7.50;7.50;;;;;24.14;38.74;102072.13;5108542;27;45328;-49
2021/06/13 10:59:42;;;;;;;;;6.33;5.67;;;;;24.17;38.51;102068.38;5106577;27;45348;-50
2021/06/13 11:02:13;;;;;;;;;5.00;5.00;;;;;24.19;38.57;102067.31;5122003;27;45359;-46
2021/06/13 11:04:51;;;;;;;;;9.75;8.00;;;;;24.22;38.18;102060.81;5121107;27;47714;-48
2021/06/13 11:07:29;;;;;;;;;6.33;5.67;;;;;24.24;38.83;102058.91;5110497;27;46130;-46
2021/06/13 11:10:15;;;;;;;;;5.00;5.00;;;;;24.27;38.30;102072.31;5101207;27;45680;-49
2021/06/13 11:13:01;;;;;;;;;8.00;7.00;;;;;24.29;38.03;102062.25;5105766;27;45586;-48
2021/06/13 11:15:34;;;;;;;;;5.67;4.67;;;;;24.28;38.40;102050.50;5116657;27;47157;-49
2021/06/13 11:18:08;;;;;;;;;7.00;7.00;;;;;24.31;38.44;102053.06;5121287;27;46121;-49
2021/06/13 11:20:36;;;;;;;;;6.75;6.00;;;;;24.34;37.69;102058.31;5121426;27;45373;-45
2021/06/13 11:23:06;;;;;;;;;6.00;5.33;;;;;24.36;37.61;102056.38;5121304;27;45580;-48
2021/06/13 11:25:36;;;;;;;;;7.75;4.75;;;;;24.41;37.38;102052.53;5121173;27;48349;-48
2021/06/13 11:28:19;;;;;;;;;6.00;6.00;;;;;24.43;37.10;102046.06;5121551;27;45327;-49
2021/06/13 11:30:52;;;;;;;;;7.00;7.00;;;;;24.46;37.43;102059.44;5121435;27;45375;-45